createdAt,value
2017-09-05T00:01:42.770Z,78.72
2017-09-05T00:04:11.979Z,76.94
2017-09-05T00:06:43.211Z,77.46
2017-09-05T00:09:12.927Z,80.24
2017-09-05T00:11:43.360Z,78.73
2017-09-05T00:14:12.667Z,77.13
2017-09-05T00:16:43.219Z,77.23
2017-09-05T00:19:12.815Z,76.25
2017-09-05T00:21:42.973Z,77.08
2017-09-05T00:24:12.999Z,76.53
2017-09-05T00:26:42.598Z,79.09
2017-09-05T00:29:12.075Z,81.77
2017-09-05T00:31:42.704Z,78.21
2017-09-05T00:34:12.379Z,76.77
2017-09-05T00:36:43.043Z,82.91
2017-09-05T00:39:13.232Z,84.72
2017-09-05T00:41:42.903Z,78.92
2017-09-05T00:44:12.583Z,81.44
2017-09-05T00:46:43.575Z,80.59
2017-09-05T00:49:13.275Z,77.95
2017-09-05T00:51:43.576Z,78.49
2017-09-05T00:54:13.559Z,84.80
2017-09-05T00:56:42.982Z,79.65
2017-09-05T00:59:12.441Z,78.35
2017-09-05T01:01:43.431Z,83.35
2017-09-05T01:04:12.943Z,84.87
2017-09-05T01:06:43.142Z,81.95
2017-09-05T01:09:12.975Z,80.67
2017-09-05T01:11:44.220Z,79.17
2017-09-05T01:14:13.760Z,85.37
2017-09-05T01:16:43.556Z,80.05
2017-09-05T01:19:13.083Z,78.80
2017-09-05T01:21:44.682Z,79.34
2017-09-05T01:24:14.334Z,83.69
2017-09-05T01:26:43.976Z,82.24
2017-09-05T01:29:13.366Z,81.57
2017-09-05T01:31:43.675Z,79.64
2017-09-05T01:34:13.046Z,83.94
2017-09-05T01:36:42.346Z,81.70
2017-09-05T01:39:12.013Z,83.54
2017-09-05T01:41:42.638Z,80.32
2017-09-05T01:44:12.167Z,78.73
2017-09-05T01:46:44.526Z,84.53
2017-09-05T01:49:14.685Z,80.34
2017-09-05T01:51:44.170Z,80.43
2017-09-05T01:54:17.799Z,79.39
2017-09-05T01:56:47.564Z,78.68
2017-09-05T01:59:17.091Z,83.53
2017-09-05T02:01:46.799Z,80.16
2017-09-05T02:04:16.643Z,79.42
2017-09-05T02:06:45.946Z,79.05
2017-09-05T02:09:15.539Z,78.39
2017-09-05T02:11:45.213Z,79.42
2017-09-05T02:14:14.950Z,84.39
2017-09-05T02:16:44.354Z,86.21
2017-09-05T02:19:14.601Z,79.90
2017-09-05T02:21:43.942Z,81.35
2017-09-05T02:24:13.508Z,81.77
2017-09-05T02:26:43.306Z,81.38
2017-09-05T02:29:12.774Z,80.83
2017-09-05T02:31:42.542Z,81.22
2017-09-05T02:34:12.278Z,80.20
2017-09-05T02:36:44.503Z,79.57
2017-09-05T02:39:14.060Z,79.57
2017-09-05T02:41:46.170Z,79.80
2017-09-05T02:44:15.555Z,79.87
2017-09-05T02:46:45.497Z,79.89
2017-09-05T02:49:15.295Z,80.17
2017-09-05T02:51:44.521Z,80.49
2017-09-05T02:54:14.011Z,79.63
2017-09-05T02:56:43.596Z,79.41
2017-09-05T02:59:13.652Z,79.18
2017-09-05T03:01:44.554Z,78.76
2017-09-05T03:04:14.193Z,78.46
2017-09-05T03:06:43.435Z,77.92
2017-09-05T03:09:12.995Z,77.92
2017-09-05T03:11:43.883Z,78.06
2017-09-05T03:14:13.734Z,78.37
2017-09-05T03:16:43.223Z,78.42
2017-09-05T03:19:12.946Z,78.49
2017-09-05T03:21:42.725Z,78.47
2017-09-05T03:24:12.367Z,79.42
2017-09-05T03:26:42.654Z,79.26
2017-09-05T03:29:12.410Z,79.14
2017-09-05T03:31:43.074Z,79.28
2017-09-05T03:34:12.446Z,79.67
2017-09-05T03:36:43.098Z,79.84
2017-09-05T03:39:13.055Z,79.77
2017-09-05T03:41:42.804Z,79.94
2017-09-05T03:44:12.395Z,79.79
2017-09-05T03:46:43.650Z,79.54
2017-09-05T03:49:13.714Z,79.18
2017-09-05T03:51:43.431Z,79.12
2017-09-05T03:54:12.895Z,78.78
2017-09-05T03:56:43.156Z,79.75
2017-09-05T03:59:12.987Z,79.14
2017-09-05T04:01:42.671Z,78.94
2017-09-05T04:04:12.339Z,78.76
2017-09-05T04:06:43.786Z,78.55
2017-09-05T04:09:12.990Z,78.61
2017-09-05T04:11:43.085Z,78.33
2017-09-05T04:14:12.846Z,78.47
2017-09-05T04:16:42.948Z,78.37
2017-09-05T04:19:12.420Z,79.56
2017-09-05T04:21:43.253Z,78.50
2017-09-05T04:24:12.906Z,80.44
2017-09-05T04:26:42.926Z,84.94
2017-09-05T04:29:12.891Z,80.74
2017-09-05T04:31:42.414Z,83.67
2017-09-05T04:34:11.564Z,81.92
2017-09-05T04:36:43.961Z,80.26
2017-09-05T04:39:13.484Z,84.92
2017-09-05T04:41:47.057Z,86.87
2017-09-05T04:44:16.907Z,82.13
2017-09-05T04:46:46.159Z,84.51
2017-09-05T04:49:15.668Z,82.83
2017-09-05T04:51:45.268Z,81.49
2017-09-05T04:54:14.878Z,80.64
2017-09-05T04:56:44.370Z,82.67
2017-09-05T04:59:14.439Z,82.89
2017-09-05T05:01:43.698Z,87.18
2017-09-05T05:04:12.948Z,83.53
2017-09-05T05:06:43.007Z,82.72
2017-09-05T05:09:12.426Z,81.66
2017-09-05T05:11:42.648Z,83.08
2017-09-05T05:14:12.095Z,81.50
2017-09-05T05:16:43.480Z,82.10
2017-09-05T05:19:13.199Z,82.15
2017-09-05T05:21:43.477Z,81.47
2017-09-05T05:24:19.154Z,81.24
2017-09-05T05:26:56.130Z,83.14
2017-09-05T05:29:27.018Z,81.92
2017-09-05T05:31:56.555Z,81.40
2017-09-05T05:34:26.383Z,81.14
2017-09-05T05:36:56.367Z,81.32
2017-09-05T05:39:26.022Z,81.87
2017-09-05T05:41:55.352Z,83.47
2017-09-05T05:44:24.530Z,84.25
2017-09-05T05:46:53.982Z,82.20
2017-09-05T05:51:56.847Z,82.93
2017-09-05T05:54:26.147Z,82.69
2017-09-05T05:56:55.327Z,82.73
2017-09-05T05:59:25.046Z,82.84
2017-09-05T06:01:54.311Z,81.94
2017-09-05T06:04:23.714Z,82.03
2017-09-05T06:06:53.354Z,82.11
2017-09-05T06:09:22.716Z,81.47
2017-09-05T06:11:51.916Z,81.04
2017-09-05T06:14:21.566Z,80.88
2017-09-05T06:16:50.962Z,80.83
2017-09-05T06:19:20.352Z,81.85
2017-09-05T06:21:49.790Z,80.90
2017-09-05T06:24:19.103Z,79.56
2017-09-05T06:26:48.246Z,79.62
2017-09-05T06:29:17.884Z,79.16
2017-09-05T06:31:47.065Z,79.33
2017-09-05T06:34:16.568Z,80.83
2017-09-05T06:36:46.135Z,78.52
2017-09-05T06:39:15.708Z,78.90
2017-09-05T06:41:44.990Z,78.99
2017-09-05T06:44:14.894Z,79.72
2017-09-05T06:46:44.097Z,79.73
2017-09-05T06:49:13.244Z,79.33
2017-09-05T06:51:42.810Z,78.78
2017-09-05T06:54:12.210Z,77.45
2017-09-05T06:56:44.016Z,77.69
2017-09-05T06:59:13.557Z,75.14
2017-09-05T07:01:42.734Z,74.67
2017-09-05T07:04:12.103Z,75.46
2017-09-05T07:06:43.088Z,75.65
2017-09-05T07:09:12.680Z,75.40
2017-09-05T07:11:42.990Z,74.40
2017-09-05T07:14:12.735Z,73.07
2017-09-05T07:16:43.621Z,73.73
2017-09-05T07:19:12.818Z,74.04
2017-09-05T07:21:43.092Z,71.62
2017-09-05T07:24:12.251Z,70.80
2017-09-05T07:26:42.595Z,69.00
2017-09-05T07:29:12.583Z,68.13
2017-09-05T07:31:42.595Z,67.57
2017-09-05T07:34:12.469Z,65.28
2017-09-05T07:36:43.606Z,66.15
2017-09-05T07:39:12.767Z,65.73
2017-09-05T07:41:42.212Z,66.28
2017-09-05T07:44:12.219Z,64.29
2017-09-05T07:46:43.653Z,65.19
2017-09-05T07:49:12.931Z,65.09
2017-09-05T07:51:44.174Z,63.85
2017-09-05T07:54:13.651Z,62.06
2017-09-05T07:56:43.322Z,59.37
2017-09-05T07:59:13.007Z,59.31
2017-09-05T08:01:42.918Z,59.00
2017-09-05T08:04:12.334Z,59.50
2017-09-05T08:06:42.758Z,58.81
2017-09-05T08:09:12.044Z,59.22
2017-09-05T08:11:42.607Z,61.35
2017-09-05T08:14:12.082Z,58.93
2017-09-05T08:16:42.944Z,58.81
2017-09-05T08:19:12.216Z,59.83
2017-09-05T08:21:43.316Z,59.64
2017-09-05T08:24:12.503Z,57.92
2017-09-05T08:26:43.947Z,57.81
2017-09-05T08:29:13.510Z,58.16
2017-09-05T08:31:42.899Z,57.52
2017-09-05T08:34:12.687Z,57.01
2017-09-05T08:36:44.571Z,57.76
2017-09-05T08:39:13.760Z,56.75
2017-09-05T08:41:43.342Z,55.95
2017-09-05T08:44:12.840Z,56.99
2017-09-05T08:46:43.183Z,56.19
2017-09-05T08:49:12.326Z,56.29
2017-09-05T08:51:43.892Z,54.79
2017-09-05T08:54:13.300Z,54.99
2017-09-05T08:56:43.603Z,56.55
2017-09-05T08:59:13.096Z,55.65
2017-09-05T09:01:43.134Z,54.20
2017-09-05T09:04:12.501Z,56.58
2017-09-05T09:06:42.731Z,56.50
2017-09-05T09:09:11.915Z,54.64
2017-09-05T09:11:43.040Z,54.53
2017-09-05T09:14:12.567Z,55.34
2017-09-05T09:16:42.504Z,55.00
2017-09-05T09:19:11.763Z,52.98
2017-09-05T09:21:42.946Z,54.69
2017-09-05T09:24:12.167Z,55.59
2017-09-05T09:26:42.726Z,54.95
2017-09-05T09:29:12.319Z,53.74
2017-09-05T09:31:43.032Z,52.87
2017-09-05T09:34:12.430Z,53.18
2017-09-05T09:36:42.790Z,53.68
2017-09-05T09:39:14.047Z,53.95
2017-09-05T09:41:43.532Z,52.79
2017-09-05T09:44:16.823Z,53.65
2017-09-05T09:46:46.123Z,54.68
2017-09-05T09:49:15.475Z,55.21
2017-09-05T09:51:45.447Z,52.08
2017-09-05T09:54:15.196Z,52.34
2017-09-05T09:56:44.404Z,54.94
2017-09-05T09:59:14.183Z,54.51
2017-09-05T10:01:43.387Z,52.51
2017-09-05T10:04:14.011Z,53.33
2017-09-05T10:06:44.752Z,55.38
2017-09-05T10:09:14.043Z,54.72
2017-09-05T10:11:43.304Z,52.86
2017-09-05T10:14:13.247Z,51.29
2017-09-05T10:16:43.318Z,51.51
2017-09-05T10:19:12.476Z,51.78
2017-09-05T10:21:43.374Z,51.31
2017-09-05T10:24:12.719Z,53.70
2017-09-05T10:26:43.087Z,50.80
2017-09-05T10:29:12.534Z,51.37
2017-09-05T10:31:42.467Z,50.73
2017-09-05T10:34:11.778Z,50.83
2017-09-05T10:36:43.580Z,52.17
2017-09-05T10:39:12.975Z,53.48
2017-09-05T10:41:44.291Z,52.73
2017-09-05T10:44:14.032Z,52.26
2017-09-05T10:46:43.303Z,51.68
2017-09-05T10:49:12.551Z,49.64
2017-09-05T10:51:43.227Z,49.69
2017-09-05T10:54:12.679Z,47.17
2017-09-05T10:56:43.311Z,48.92
2017-09-05T10:59:13.006Z,48.93
2017-09-05T11:01:43.375Z,50.71
2017-09-05T11:04:12.660Z,51.22
2017-09-05T11:06:45.419Z,50.07
2017-09-05T11:09:15.291Z,49.89
2017-09-05T11:11:44.475Z,50.33
2017-09-05T11:14:15.256Z,50.44
2017-09-05T11:16:44.608Z,50.75
2017-09-05T11:19:13.869Z,51.13
2017-09-05T11:21:43.346Z,51.50
2017-09-05T11:24:12.544Z,51.89
2017-09-05T11:26:42.872Z,52.74
2017-09-05T11:29:12.761Z,54.27
2017-09-05T11:31:43.475Z,52.79
2017-09-05T11:34:12.951Z,54.18
2017-09-05T11:36:43.886Z,50.48
2017-09-05T11:39:13.135Z,50.40
2017-09-05T11:41:42.947Z,50.90
2017-09-05T11:44:12.522Z,49.49
2017-09-05T11:46:42.391Z,51.24
2017-09-05T11:49:11.819Z,52.79
2017-09-05T11:51:43.041Z,53.64
2017-09-05T11:54:12.210Z,53.96
2017-09-05T11:56:44.666Z,53.30
2017-09-05T11:59:14.610Z,53.93
2017-09-05T12:01:43.799Z,52.78
2017-09-05T12:04:14.757Z,51.92
2017-09-05T12:06:44.619Z,55.95
2017-09-05T12:09:13.859Z,52.24
2017-09-05T12:11:43.540Z,52.45
2017-09-05T12:14:12.986Z,53.51
2017-09-05T12:16:43.391Z,54.64
2017-09-05T12:19:13.147Z,54.08
2017-09-05T12:21:43.691Z,55.67
2017-09-05T12:24:12.887Z,56.03
2017-09-05T12:26:43.359Z,54.34
2017-09-05T12:29:13.262Z,54.96
2017-09-05T12:31:44.358Z,55.07
2017-09-05T12:34:13.816Z,53.81
2017-09-05T12:36:43.397Z,55.17
2017-09-05T12:39:12.625Z,56.63
2017-09-05T12:41:43.208Z,53.83
2017-09-05T12:44:12.802Z,53.54
2017-09-05T12:46:42.711Z,52.19
2017-09-05T12:49:11.872Z,54.73
2017-09-05T12:51:42.904Z,54.14
2017-09-05T12:54:12.168Z,53.18
2017-09-05T12:56:43.322Z,52.38
2017-09-05T12:59:13.176Z,55.85
2017-09-05T13:01:42.647Z,54.74
2017-09-05T13:04:11.893Z,53.42
2017-09-05T13:06:43.043Z,55.11
2017-09-05T13:09:12.317Z,54.23
2017-09-05T13:11:44.507Z,52.80
2017-09-05T13:14:13.966Z,54.14
2017-09-05T13:16:43.405Z,54.73
2017-09-05T13:19:12.579Z,55.03
2017-09-05T13:21:42.816Z,55.28
2017-09-05T13:24:12.450Z,53.23
2017-09-05T13:26:41.955Z,53.05
2017-09-05T13:29:15.774Z,51.72
2017-09-05T13:31:45.521Z,52.99
2017-09-05T13:34:14.819Z,54.47
2017-09-05T13:36:44.447Z,53.74
2017-09-05T13:39:13.866Z,53.39
2017-09-05T13:41:43.323Z,54.52
2017-09-05T13:44:13.115Z,54.57
2017-09-05T13:46:42.742Z,52.96
2017-09-05T13:49:11.908Z,54.39
2017-09-05T13:51:41.461Z,55.39
2017-09-05T13:54:10.891Z,57.40
2017-09-05T13:56:42.187Z,58.29
2017-09-05T13:59:13.294Z,57.72
2017-09-05T14:01:42.741Z,57.86
2017-09-05T14:04:12.370Z,56.20
2017-09-05T14:06:44.584Z,56.89
2017-09-05T14:09:13.790Z,54.98
2017-09-05T14:11:44.791Z,55.89
2017-09-05T14:14:14.350Z,56.24
2017-09-05T14:16:44.361Z,55.96
2017-09-05T14:19:13.685Z,55.51
2017-09-05T14:21:43.756Z,56.92
2017-09-05T14:24:13.223Z,57.49
2017-09-05T14:26:43.758Z,57.00
2017-09-05T14:29:13.450Z,57.00
2017-09-05T14:31:42.914Z,54.14
2017-09-05T14:34:12.652Z,56.04
2017-09-05T14:36:42.647Z,55.07
2017-09-05T14:39:11.940Z,55.98
2017-09-05T14:41:41.151Z,57.96
2017-09-05T14:44:11.036Z,55.84
2017-09-05T14:46:41.110Z,55.78
2017-09-05T14:49:10.335Z,55.33
2017-09-05T14:51:41.200Z,55.54
2017-09-05T14:54:10.650Z,57.17
2017-09-05T14:56:41.375Z,56.96
2017-09-05T14:59:10.988Z,54.67
2017-09-05T15:01:42.016Z,54.45
2017-09-05T15:04:11.807Z,53.58
2017-09-05T15:06:41.410Z,54.22
2017-09-05T15:09:10.683Z,53.71
2017-09-05T15:11:39.963Z,56.47
2017-09-05T15:14:09.914Z,55.34
2017-09-05T15:16:40.691Z,55.66
2017-09-05T15:19:10.970Z,55.01
2017-09-05T15:21:42.772Z,56.92
2017-09-05T15:24:12.243Z,57.92
2017-09-05T15:26:43.156Z,55.92
2017-09-05T15:29:12.687Z,57.40
2017-09-05T15:31:42.778Z,55.83
2017-09-05T15:34:12.119Z,57.61
2017-09-05T15:36:42.449Z,56.98
2017-09-05T15:39:12.009Z,55.85
2017-09-05T15:41:43.137Z,56.09
2017-09-05T15:44:14.456Z,56.47
2017-09-05T15:46:44.098Z,57.67
2017-09-05T15:49:13.457Z,55.59
2017-09-05T15:51:43.177Z,57.27
2017-09-05T15:54:13.269Z,57.97
2017-09-05T15:56:42.882Z,57.25
2017-09-05T15:59:12.391Z,58.12
2017-09-05T16:01:42.738Z,57.04
2017-09-05T16:04:12.255Z,56.85
2017-09-05T16:06:42.793Z,58.14
2017-09-05T16:09:12.677Z,57.78
2017-09-05T16:11:43.535Z,58.40
2017-09-05T16:14:12.977Z,58.77
2017-09-05T16:16:42.973Z,57.91
2017-09-05T16:19:12.573Z,57.34
2017-09-05T16:21:43.097Z,58.11
2017-09-05T16:24:12.978Z,56.95
2017-09-05T16:26:43.219Z,57.53
2017-09-05T16:29:12.734Z,57.68
2017-09-05T16:31:42.746Z,57.98
2017-09-05T16:34:12.296Z,58.30
2017-09-05T16:36:42.930Z,58.44
2017-09-05T16:39:12.842Z,58.34
2017-09-05T16:41:43.498Z,60.04
2017-09-05T16:44:13.271Z,59.99
2017-09-05T16:46:43.081Z,59.61
2017-09-05T16:49:12.846Z,58.91
2017-09-05T16:51:43.582Z,59.14
2017-09-05T16:54:13.569Z,59.72
2017-09-05T16:56:43.051Z,59.27
2017-09-05T16:59:13.873Z,59.68
2017-09-05T17:01:44.215Z,60.07
2017-09-05T17:04:14.957Z,59.78
2017-09-05T17:06:44.765Z,60.00
2017-09-05T17:09:14.687Z,61.11
2017-09-05T17:11:44.192Z,60.66
2017-09-05T17:14:14.535Z,61.21
2017-09-05T17:16:44.492Z,60.44
2017-09-05T17:19:14.148Z,61.23
2017-09-05T17:21:43.666Z,61.54
2017-09-05T17:24:15.059Z,61.90
2017-09-05T17:26:44.395Z,61.94
2017-09-05T17:29:14.198Z,61.70
2017-09-05T17:31:44.068Z,61.72
2017-09-05T17:34:22.823Z,63.05
2017-09-05T17:36:52.264Z,62.73
2017-09-05T17:39:22.087Z,62.36
2017-09-05T17:41:51.513Z,62.85
2017-09-05T17:44:21.094Z,62.96
2017-09-05T17:46:50.984Z,62.75
2017-09-05T17:49:20.516Z,62.78
2017-09-05T17:51:49.843Z,62.79
2017-09-05T17:54:19.496Z,62.63
2017-09-05T17:56:48.692Z,63.31
2017-09-05T17:59:17.886Z,63.21
2017-09-05T18:01:47.459Z,63.42
2017-09-05T18:04:16.707Z,63.45
2017-09-05T18:06:45.870Z,63.64
2017-09-05T18:09:15.622Z,64.16
2017-09-05T18:11:45.071Z,64.10
2017-09-05T18:14:14.586Z,64.51
2017-09-05T18:16:44.048Z,65.35
2017-09-05T18:19:13.274Z,65.34
2017-09-05T18:21:43.136Z,66.02
2017-09-05T18:24:12.742Z,65.75
2017-09-05T18:26:43.194Z,65.70
2017-09-05T18:29:12.961Z,65.91
2017-09-05T18:31:43.452Z,65.81
2017-09-05T18:34:12.698Z,65.98
2017-09-05T18:36:42.746Z,66.07
2017-09-05T18:39:12.286Z,65.74
2017-09-05T18:41:41.700Z,66.34
2017-09-05T18:44:10.895Z,66.40
2017-09-05T18:46:41.867Z,66.81
2017-09-05T18:49:11.143Z,66.89
2017-09-05T18:51:42.082Z,67.03
2017-09-05T18:54:11.621Z,67.34
2017-09-05T18:56:40.973Z,67.42
2017-09-05T18:59:10.629Z,67.47
2017-09-05T19:01:40.321Z,67.55
2017-09-05T19:04:09.587Z,67.52
2017-09-05T19:06:39.779Z,67.73
2017-09-05T19:09:09.788Z,67.82
2017-09-05T19:11:40.363Z,68.11
2017-09-05T19:14:10.323Z,68.07
2017-09-05T19:16:43.754Z,67.98
2017-09-05T19:19:13.174Z,68.06
2017-09-05T19:21:42.528Z,68.20
2017-09-05T19:24:12.836Z,68.43
2017-09-05T19:26:42.464Z,68.24
2017-09-05T19:29:13.089Z,68.59
2017-09-05T19:31:42.982Z,68.86
2017-09-05T19:34:12.255Z,68.79
2017-09-05T19:36:43.135Z,68.62
2017-09-05T19:39:12.748Z,69.00
2017-09-05T19:41:42.093Z,68.76
2017-09-05T19:44:11.656Z,69.00
2017-09-05T19:46:41.125Z,69.43
2017-09-05T19:49:10.940Z,69.67
2017-09-05T19:51:42.219Z,69.89
2017-09-05T19:54:11.997Z,70.14
2017-09-05T19:56:42.439Z,69.74
2017-09-05T19:59:11.722Z,69.81
2017-09-05T20:01:43.160Z,69.73
2017-09-05T20:04:17.321Z,69.48
2017-09-05T20:06:46.500Z,69.48
2017-09-05T20:09:16.056Z,71.05
2017-09-05T20:11:45.287Z,71.03
2017-09-05T20:14:14.604Z,70.56
2017-09-05T20:16:44.389Z,70.20
2017-09-05T20:19:13.639Z,70.39
2017-09-05T20:21:42.899Z,70.58
2017-09-05T20:24:12.571Z,70.51
2017-09-05T20:26:43.210Z,70.89
2017-09-05T20:29:13.907Z,70.29
2017-09-05T20:31:43.455Z,70.78
2017-09-05T20:34:13.022Z,70.26
2017-09-05T20:36:42.220Z,70.48
2017-09-05T20:39:12.035Z,70.54
2017-09-05T20:41:44.403Z,70.75
2017-09-05T20:44:14.328Z,70.39
2017-09-05T20:46:45.241Z,70.68
2017-09-05T20:49:14.584Z,70.49
2017-09-05T20:51:44.114Z,70.58
2017-09-05T20:54:13.694Z,70.42
2017-09-05T20:56:42.944Z,70.33
2017-09-05T20:59:12.582Z,70.29
2017-09-05T21:01:41.752Z,70.33
2017-09-05T21:04:10.915Z,70.44
2017-09-05T21:06:40.471Z,70.41
2017-09-05T21:09:09.664Z,70.57
2017-09-05T21:11:40.302Z,70.57
2017-09-05T21:14:10.007Z,70.39
2017-09-05T21:16:39.385Z,70.52
2017-09-05T21:19:08.644Z,70.33
2017-09-05T21:21:38.155Z,70.52
2017-09-05T21:24:07.330Z,70.55
2017-09-05T21:26:36.819Z,70.63
2017-09-05T21:29:06.507Z,70.66
2017-09-05T21:31:35.755Z,70.43
2017-09-05T21:34:04.951Z,70.66
2017-09-05T21:36:34.488Z,70.71
2017-09-05T21:39:03.866Z,70.71
2017-09-05T21:41:33.180Z,70.90
2017-09-05T21:44:02.936Z,70.89
2017-09-05T21:46:32.546Z,70.73
2017-09-05T21:49:02.255Z,70.54
2017-09-05T21:51:31.795Z,70.74
2017-09-05T21:54:01.494Z,71.06
2017-09-05T21:56:30.766Z,70.67
2017-09-05T21:59:00.644Z,70.76
2017-09-05T22:01:30.112Z,70.78
2017-09-05T22:03:59.720Z,70.95
2017-09-05T22:06:29.171Z,71.11
2017-09-05T22:08:58.362Z,71.10
2017-09-05T22:11:27.531Z,70.49
2017-09-05T22:14:01.171Z,70.65
2017-09-05T22:16:34.392Z,70.55
2017-09-05T22:19:08.314Z,70.45
2017-09-05T22:21:37.492Z,70.55
2017-09-05T22:24:06.643Z,70.09
2017-09-05T22:28:42.414Z,70.21
2017-09-05T22:31:11.744Z,70.61
2017-09-05T22:33:41.664Z,70.43
2017-09-05T22:36:11.097Z,70.63
2017-09-05T22:38:41.793Z,70.62
2017-09-05T22:41:11.587Z,71.28
2017-09-05T22:43:42.735Z,70.44
2017-09-05T22:46:11.914Z,70.62
2017-09-05T22:48:42.279Z,70.65
2017-09-05T22:51:11.478Z,70.71
2017-09-05T22:53:42.675Z,71.71
2017-09-05T22:56:12.261Z,72.08
2017-09-05T22:58:42.835Z,71.14
2017-09-05T23:01:12.045Z,72.67
2017-09-05T23:03:44.739Z,71.91
2017-09-05T23:06:13.959Z,71.86
2017-09-05T23:08:43.555Z,71.75
2017-09-05T23:11:13.506Z,71.58
2017-09-05T23:13:44.245Z,71.26
2017-09-05T23:16:13.690Z,71.27
2017-09-05T23:18:43.755Z,71.23
2017-09-05T23:21:13.725Z,70.92
2017-09-05T23:23:45.012Z,71.01
2017-09-05T23:26:14.495Z,71.21
2017-09-05T23:28:43.807Z,71.40
2017-09-05T23:31:13.003Z,71.21
2017-09-05T23:33:42.468Z,72.25
2017-09-05T23:36:11.643Z,71.50
2017-09-05T23:38:42.278Z,71.53
2017-09-05T23:41:11.756Z,71.93
2017-09-05T23:43:42.743Z,72.13
2017-09-05T23:46:12.149Z,71.82
2017-09-05T23:48:43.600Z,71.91
2017-09-05T23:51:15.255Z,71.75
2017-09-05T23:53:44.973Z,72.03
2017-09-05T23:56:14.619Z,72.28
2017-09-05T23:58:44.215Z,71.66
